Leming, Texas
Current Conditions -  °F | °C
As of 8:35 AM on Thursday 27 Nov 2014 (Local Time) from KPEZ Reporting Station
Clear Clear  
Wind Chill: 52°   Ceiling: Unl
Heat Index: 52°   Visibility: 10mi
Dew Point: 36°   Wind: 13mph
Humidity: 54%   Direction: 40°NE
Pressure: 30.47"   Gusts: 17mph
Location:  29.07°N, 98.48°W
Report Text: KPEZ 271435Z AUTO 04011G15KT 10SM CLR 11/02 A3047 RMK AO2 T01120022
Loading
Personal Weather Stations






























Interactive Weather Map New forecast layout! Learn more

10-Day Weather Forecast

Advertisements
Track Severe Weather on mobile